Time;durP1;ratioP1;P1;durP2;ratioP2;P2;SDS_P1;SDS_P2;PMS_P1;PMS_P2;Temp;Humidity;BMP_temperature;BMP_pressure;BME280_temperature;BME280_humidity;BME280_pressure;Samples;Min_cycle;Max_cycle;Signal;HPM_P1;HPM_P2
2024/01/14 00:00:20;;;;;;;;;;;;;;;18.44;60.04;100957.28;7385311;19;1360;-33
2024/01/14 00:02:48;;;;;;;;;;;;;;;18.47;59.93;100958.84;7381632;19;1381;-33
2024/01/14 00:05:19;;;;;;;;;;;;;;;18.54;59.36;100960.00;7378094;19;1838;-33
2024/01/14 00:07:48;;;;;;;;;;;;;;;18.54;59.43;100954.66;7380671;19;1852;-33
2024/01/14 00:10:16;;;;;;;;;;;;;;;18.55;59.54;100952.84;7388226;19;1459;-32
2024/01/14 00:12:45;;;;;;;;;;;;;;;18.53;59.62;100950.28;7387668;19;1658;-32
2024/01/14 00:15:14;;;;;;;;;;;;;;;18.55;59.17;100945.66;7390056;19;1559;-33
2024/01/14 00:17:43;;;;;;;;;;;;;;;17.88;59.27;100851.22;7391653;19;1591;-33
2024/01/14 00:20:12;;;;;;;;;;;;;;;18.49;59.40;100946.16;7392527;19;1733;-33
2024/01/14 00:22:42;;;;;;;;;;;;;;;18.56;59.14;100968.78;7391892;19;1647;-32
2024/01/14 00:25:12;;;;;;;;;;;;;;;18.49;59.29;100951.53;7391783;19;1454;-33
2024/01/14 00:27:40;;;;;;;;;;;;;;;18.51;59.29;100965.63;7391241;19;1842;-32
2024/01/14 00:30:09;;;;;;;;;;;;;;;18.53;59.09;100961.00;7393052;19;1026;-33
2024/01/14 00:32:38;;;;;;;;;;;;;;;18.55;58.73;100953.69;7391104;19;1919;-32
2024/01/14 00:35:06;;;;;;;;;;;;;;;18.48;59.18;100953.34;7392132;19;1916;-33
2024/01/14 00:37:35;;;;;;;;;;;;;;;18.47;58.75;100953.47;7390983;19;1566;-32
2024/01/14 00:40:07;;;;;;;;;;;;;;;18.40;59.07;100960.31;7390248;19;1630;-33
2024/01/14 00:42:35;;;;;;;;;;;;;;;18.44;58.92;100949.25;7390171;19;1229;-32
2024/01/14 00:45:03;;;;;;;;;;;;;;;18.43;58.98;100949.34;7391048;19;1727;-33
2024/01/14 00:47:32;;;;;;;;;;;;;;;18.48;58.56;100933.72;7390266;19;1900;-32
2024/01/14 00:50:00;;;;;;;;;;;;;;;18.56;58.50;100957.19;7390212;19;1491;-32
2024/01/14 00:52:28;;;;;;;;;;;;;;;18.52;58.63;100934.34;7390247;19;1949;-32
2024/01/14 00:54:57;;;;;;;;;;;;;;;18.48;58.36;100929.25;7391434;19;1642;-33
2024/01/14 00:57:28;;;;;;;;;;;;;;;18.47;58.53;100940.94;7375796;19;1602;-33
2024/01/14 00:59:56;;;;;;;;;;;;;;;18.36;58.60;100913.34;7390490;19;1998;-32
2024/01/14 01:02:24;;;;;;;;;;;;;;;18.35;58.91;100914.34;7389900;19;1728;-33
2024/01/14 01:04:53;;;;;;;;;;;;;;;18.43;58.49;100933.28;7390835;19;1566;-33
2024/01/14 01:07:21;;;;;;;;;;;;;;;18.38;58.62;100904.22;7388819;19;1857;-32
2024/01/14 01:09:49;;;;;;;;;;;;;;;18.40;58.56;100888.88;7389742;19;1839;-33
2024/01/14 01:12:17;;;;;;;;;;;;;;;18.40;58.43;100886.22;7389305;19;1677;-32
2024/01/14 01:14:48;;;;;;;;;;;;;;;18.35;58.73;100882.22;7388745;19;1491;-33
2024/01/14 01:17:17;;;;;;;;;;;;;;;18.36;58.58;100863.31;7388776;19;1544;-33
2024/01/14 01:19:45;;;;;;;;;;;;;;;18.39;58.26;100864.91;7389763;19;1638;-33
2024/01/14 01:22:13;;;;;;;;;;;;;;;18.38;58.28;100873.91;7389949;19;1337;-33
2024/01/14 01:24:42;;;;;;;;;;;;;;;18.38;58.05;100853.34;7391085;19;1571;-33
2024/01/14 01:27:11;;;;;;;;;;;;;;;18.39;58.13;100863.06;7390099;19;1863;-32
2024/01/14 01:29:39;;;;;;;;;;;;;;;18.37;58.30;100857.00;7390268;19;1553;-33
2024/01/14 01:32:10;;;;;;;;;;;;;;;18.34;58.31;100845.69;7389314;19;1565;-34
2024/01/14 01:34:39;;;;;;;;;;;;;;;18.40;58.07;100839.81;7389518;19;1889;-32
2024/01/14 01:37:07;;;;;;;;;;;;;;;18.40;57.89;100845.19;7389443;19;1625;-33
2024/01/14 01:39:36;;;;;;;;;;;;;;;18.39;58.06;100836.31;7389885;19;1646;-32
2024/01/14 01:42:04;;;;;;;;;;;;;;;18.34;58.33;100829.63;7388880;19;1638;-32
2024/01/14 01:44:33;;;;;;;;;;;;;;;18.30;58.48;100834.38;7387722;19;1715;-33
2024/01/14 01:47:02;;;;;;;;;;;;;;;18.33;58.26;100830.63;7389454;19;1838;-33
2024/01/14 01:49:34;;;;;;;;;;;;;;;18.44;57.94;100830.53;7389881;19;1746;-32
2024/01/14 01:52:04;;;;;;;;;;;;;;;18.38;58.03;100828.38;7391421;19;1585;-32
2024/01/14 01:54:33;;;;;;;;;;;;;;;18.45;57.83;100816.19;7398193;19;1679;-33
2024/01/14 01:57:02;;;;;;;;;;;;;;;18.45;57.92;100822.38;7380823;19;1617;-33
2024/01/14 01:59:31;;;;;;;;;;;;;;;18.44;57.85;100804.63;7398142;19;1620;-33
2024/01/14 02:02:00;;;;;;;;;;;;;;;18.09;58.92;100808.47;7396278;19;1564;-32
2024/01/14 02:04:30;;;;;;;;;;;;;;;17.75;60.28;100790.81;7397172;19;1841;-33
2024/01/14 02:07:01;;;;;;;;;;;;;;;17.52;60.18;100806.91;7395330;19;1837;-33
2024/01/14 02:09:29;;;;;;;;;;;;;;;17.44;60.66;100820.91;7395563;19;1838;-33
2024/01/14 02:11:58;;;;;;;;;;;;;;;17.34;61.07;100803.06;7396276;19;1766;-32
2024/01/14 02:14:26;;;;;;;;;;;;;;;17.30;61.69;100787.25;7396372;19;1547;-33
2024/01/14 02:16:54;;;;;;;;;;;;;;;17.85;59.86;100789.94;7395967;19;1499;-33
2024/01/14 02:19:23;;;;;;;;;;;;;;;18.21;58.78;100776.28;7397049;19;1010;-32
2024/01/14 02:21:56;;;;;;;;;;;;;;;18.49;58.34;100780.97;7396278;19;1815;-32
2024/01/14 02:24:29;;;;;;;;;;;;;;;18.46;58.02;100762.50;7396073;19;1659;-33
2024/01/14 02:26:57;;;;;;;;;;;;;;;18.36;58.42;100768.78;7395506;19;1922;-32
2024/01/14 02:29:28;;;;;;;;;;;;;;;18.33;58.20;100780.59;7395543;19;1833;-33
2024/01/14 02:31:56;;;;;;;;;;;;;;;18.27;58.24;100773.94;7394980;19;1735;-32
2024/01/14 02:34:25;;;;;;;;;;;;;;;18.34;58.22;100776.09;7394276;19;1648;-33
2024/01/14 02:36:53;;;;;;;;;;;;;;;18.33;57.80;100769.06;7395112;19;1636;-33
2024/01/14 02:39:21;;;;;;;;;;;;;;;18.35;57.74;100777.81;7394411;19;1454;-33
2024/01/14 02:41:52;;;;;;;;;;;;;;;18.35;57.85;100761.75;7392127;19;2384;-33
2024/01/14 02:44:20;;;;;;;;;;;;;;;18.41;57.45;100774.59;7393201;19;1558;-31
2024/01/14 02:46:49;;;;;;;;;;;;;;;18.30;57.76;100770.13;7394436;19;1676;-31
2024/01/14 02:49:17;;;;;;;;;;;;;;;18.34;57.68;100781.44;7391942;19;1861;-32
2024/01/14 02:51:46;;;;;;;;;;;;;;;18.25;58.02;100750.97;7394732;19;1458;-48
2024/01/14 02:54:15;;;;;;;;;;;;;;;18.23;57.70;100752.94;7396447;19;1367;-32
2024/01/14 02:56:43;;;;;;;;;;;;;;;18.27;57.74;100771.25;7395628;19;1260;-31
2024/01/14 02:59:14;;;;;;;;;;;;;;;18.24;57.74;100758.16;7380097;19;1786;-31
2024/01/14 03:01:46;;;;;;;;;;;;;;;18.28;57.78;100758.72;7394771;19;1554;-32
2024/01/14 03:04:15;;;;;;;;;;;;;;;18.29;57.55;100758.59;7392791;19;1683;-31
2024/01/14 03:06:43;;;;;;;;;;;;;;;18.28;57.54;100746.22;7394749;19;1351;-32
2024/01/14 03:09:11;;;;;;;;;;;;;;;18.33;57.46;100745.78;7392101;19;1845;-31
2024/01/14 03:11:40;;;;;;;;;;;;;;;18.25;57.51;100730.38;7393452;19;1584;-31
2024/01/14 03:14:08;;;;;;;;;;;;;;;18.33;57.55;100748.47;7394250;19;1588;-35
2024/01/14 03:16:39;;;;;;;;;;;;;;;18.24;57.47;100734.06;7392908;19;1952;-31
2024/01/14 03:19:07;;;;;;;;;;;;;;;18.27;57.22;100731.09;7394302;19;1469;-32
2024/01/14 03:21:36;;;;;;;;;;;;;;;18.29;57.53;100726.47;7393577;19;1978;-31
2024/01/14 03:24:04;;;;;;;;;;;;;;;18.25;57.58;100735.75;7394271;19;1611;-31
2024/01/14 03:26:32;;;;;;;;;;;;;;;18.25;57.53;100729.56;7393170;19;1387;-31
2024/01/14 03:29:01;;;;;;;;;;;;;;;18.25;57.60;100724.19;7391063;19;1869;-31
2024/01/14 03:31:29;;;;;;;;;;;;;;;18.31;57.50;100725.50;7393246;19;1582;-31
2024/01/14 03:34:00;;;;;;;;;;;;;;;18.29;57.27;100725.63;7392893;19;1841;-31
2024/01/14 03:36:28;;;;;;;;;;;;;;;18.30;57.19;100713.94;7392227;19;1386;-31
2024/01/14 03:38:56;;;;;;;;;;;;;;;18.32;57.27;100727.19;7392773;19;1544;-31
2024/01/14 03:41:25;;;;;;;;;;;;;;;18.35;57.14;100713.56;7393310;19;1553;-32
2024/01/14 03:43:53;;;;;;;;;;;;;;;18.30;57.17;100711.25;7391830;19;1746;-31
2024/01/14 03:46:21;;;;;;;;;;;;;;;18.31;57.33;100706.75;7393377;19;1633;-31
2024/01/14 03:48:49;;;;;;;;;;;;;;;18.26;57.34;100702.66;7391457;19;1845;-32
2024/01/14 03:51:20;;;;;;;;;;;;;;;18.26;57.38;100721.41;7392843;19;1810;-33
2024/01/14 03:53:49;;;;;;;;;;;;;;;18.35;57.25;100716.22;7393052;19;1592;-31
2024/01/14 03:56:17;;;;;;;;;;;;;;;18.32;57.44;100725.34;7392890;19;1827;-32
2024/01/14 03:58:45;;;;;;;;;;;;;;;18.36;57.06;100709.88;7376936;19;1434;-32
2024/01/14 04:01:17;;;;;;;;;;;;;;;18.45;56.98;100709.94;7392212;19;1707;-31
2024/01/14 04:03:46;;;;;;;;;;;;;;;18.62;56.45;100711.16;7390902;19;1395;-31
2024/01/14 04:06:14;;;;;;;;;;;;;;;18.67;56.44;100705.38;7391527;19;1644;-31
2024/01/14 04:08:45;;;;;;;;;;;;;;;18.88;56.15;100708.88;7391512;19;1853;-31
2024/01/14 04:11:13;;;;;;;;;;;;;;;18.87;56.31;100692.94;7392531;19;1350;-31
2024/01/14 04:13:42;;;;;;;;;;;;;;;18.84;56.46;100698.53;7392515;19;1540;-32
2024/01/14 04:16:11;;;;;;;;;;;;;;;18.89;56.50;100685.59;7393285;19;1061;-32
2024/01/14 04:18:39;;;;;;;;;;;;;;;18.84;56.56;100685.16;7391126;19;1580;-31
2024/01/14 04:21:07;;;;;;;;;;;;;;;18.85;56.66;100684.19;7392545;19;1140;-31
2024/01/14 04:23:36;;;;;;;;;;;;;;;18.87;56.38;100687.56;7392087;19;1669;-31
2024/01/14 04:26:08;;;;;;;;;;;;;;;18.79;56.82;100685.56;7391966;19;1219;-32
2024/01/14 04:28:37;;;;;;;;;;;;;;;18.80;56.78;100683.72;7390627;19;1844;-32
2024/01/14 04:31:05;;;;;;;;;;;;;;;18.73;56.82;100679.88;7390668;19;1460;-32
2024/01/14 04:33:33;;;;;;;;;;;;;;;18.78;56.84;100688.34;7391138;19;1494;-32
2024/01/14 04:36:02;;;;;;;;;;;;;;;18.85;56.72;100685.03;7391080;19;1385;-31
2024/01/14 04:38:30;;;;;;;;;;;;;;;18.86;56.24;100683.19;7390612;19;1466;-31
2024/01/14 04:40:58;;;;;;;;;;;;;;;18.84;56.57;100690.50;7392208;19;1122;-31
2024/01/14 04:43:30;;;;;;;;;;;;;;;18.88;56.25;100665.16;7389671;19;1236;-32
2024/01/14 04:45:58;;;;;;;;;;;;;;;18.88;56.49;100673.22;7391368;19;1489;-31
2024/01/14 04:48:26;;;;;;;;;;;;;;;18.81;56.60;100664.84;7390598;19;1841;-32
2024/01/14 04:50:55;;;;;;;;;;;;;;;18.79;56.70;100664.13;7390021;19;1810;-32
2024/01/14 04:53:23;;;;;;;;;;;;;;;18.83;56.55;100660.19;7391181;19;1604;-32
2024/01/14 04:55:52;;;;;;;;;;;;;;;18.86;56.61;100664.44;7391264;19;1513;-31
2024/01/14 04:58:20;;;;;;;;;;;;;;;18.78;56.51;100672.28;7376190;19;1533;-31
2024/01/14 05:00:51;;;;;;;;;;;;;;;18.81;56.36;100640.75;7388436;19;1468;-37
2024/01/14 05:03:21;;;;;;;;;;;;;;;18.91;56.26;100651.47;7389080;19;1374;-32
2024/01/14 05:05:49;;;;;;;;;;;;;;;18.79;56.52;100645.38;7388319;19;1390;-32
2024/01/14 05:08:18;;;;;;;;;;;;;;;18.87;56.07;100647.38;7389417;19;1895;-32
2024/01/14 05:10:46;;;;;;;;;;;;;;;18.86;56.25;100648.34;7388970;19;1484;-32
2024/01/14 05:13:14;;;;;;;;;;;;;;;18.49;57.08;100635.53;7389519;19;1273;-31
2024/01/14 05:15:43;;;;;;;;;;;;;;;18.04;57.74;100644.75;7384242;19;1920;-32
2024/01/14 05:18:14;;;;;;;;;;;;;;;17.67;58.91;100636.34;7388587;19;1596;-32
2024/01/14 05:20:42;;;;;;;;;;;;;;;17.73;58.62;100651.88;7388506;19;1802;-31
2024/01/14 05:23:10;;;;;;;;;;;;;;;18.33;57.21;100651.25;7388624;19;1453;-31
2024/01/14 05:25:39;;;;;;;;;;;;;;;18.41;57.22;100646.91;7388198;19;1489;-32
2024/01/14 05:28:08;;;;;;;;;;;;;;;18.48;57.18;100644.53;7394701;19;1862;-31
2024/01/14 05:30:36;;;;;;;;;;;;;;;18.60;56.97;100634.56;7392531;19;1576;-32
2024/01/14 05:33:04;;;;;;;;;;;;;;;18.71;56.36;100665.78;7392745;19;1433;-31
2024/01/14 05:35:36;;;;;;;;;;;;;;;18.78;56.32;100641.00;7396490;19;1392;-32
2024/01/14 05:38:04;;;;;;;;;;;;;;;18.84;56.12;100639.59;7397672;19;1397;-31
2024/01/14 05:40:32;;;;;;;;;;;;;;;18.82;56.09;100641.56;7396560;19;1323;-32
2024/01/14 05:43:00;;;;;;;;;;;;;;;18.84;56.03;100634.25;7394507;19;1775;-31
2024/01/14 05:45:29;;;;;;;;;;;;;;;18.98;55.65;100619.59;7395818;19;1394;-31
2024/01/14 05:47:57;;;;;;;;;;;;;;;18.93;55.56;100628.06;7395669;19;1758;-32
2024/01/14 05:50:25;;;;;;;;;;;;;;;18.78;56.15;100614.22;7389829;19;1853;-32
2024/01/14 05:52:56;;;;;;;;;;;;;;;18.97;55.46;100629.50;7393526;19;1556;-33
2024/01/14 05:55:25;;;;;;;;;;;;;;;18.98;55.56;100608.88;7395927;19;1533;-32
2024/01/14 05:57:53;;;;;;;;;;;;;;;18.85;55.92;100614.53;7380034;19;1402;-31
2024/01/14 06:00:23;;;;;;;;;;;;;;;19.05;55.13;100605.50;7395091;19;1620;-32
2024/01/14 06:02:51;;;;;;;;;;;;;;;18.96;55.65;100616.22;7395740;19;1537;-32
2024/01/14 06:05:19;;;;;;;;;;;;;;;18.81;55.60;100610.44;7394627;19;1406;-31
2024/01/14 06:07:47;;;;;;;;;;;;;;;18.86;55.63;100603.69;7395866;19;1453;-32
2024/01/14 06:10:18;;;;;;;;;;;;;;;18.98;55.63;100598.16;7394097;19;1907;-32
2024/01/14 06:12:47;;;;;;;;;;;;;;;19.15;55.10;100585.94;7395087;19;1556;-31
2024/01/14 06:15:15;;;;;;;;;;;;;;;19.01;55.16;100588.03;7393696;19;1441;-31
2024/01/14 06:17:43;;;;;;;;;;;;;;;18.96;55.42;100590.28;7394101;19;1724;-31
2024/01/14 06:20:13;;;;;;;;;;;;;;;19.00;55.30;100591.72;7394558;19;1624;-31
2024/01/14 06:22:41;;;;;;;;;;;;;;;18.95;55.39;100604.66;7390812;19;1667;-31
2024/01/14 06:25:10;;;;;;;;;;;;;;;18.96;55.47;100601.00;7396011;19;1437;-31
2024/01/14 06:27:41;;;;;;;;;;;;;;;19.05;55.36;100586.75;7395656;19;1623;-32
2024/01/14 06:30:10;;;;;;;;;;;;;;;19.21;54.76;100582.69;7391946;19;1857;-32
2024/01/14 06:32:38;;;;;;;;;;;;;;;19.19;54.78;100584.66;7394145;19;1188;-31
2024/01/14 06:35:08;;;;;;;;;;;;;;;19.05;55.31;100588.59;7391111;19;1680;-31
2024/01/14 06:37:36;;;;;;;;;;;;;;;19.13;55.20;100602.16;7391087;19;1232;-31
2024/01/14 06:40:05;;;;;;;;;;;;;;;19.10;55.07;100585.50;7393911;19;1025;-32
2024/01/14 06:42:33;;;;;;;;;;;;;;;19.19;54.95;100590.00;7391627;19;1822;-32
2024/01/14 06:45:04;;;;;;;;;;;;;;;19.26;54.85;100592.00;7393513;19;1573;-32
2024/01/14 06:47:32;;;;;;;;;;;;;;;19.27;54.54;100592.84;7395036;19;1731;-32
2024/01/14 06:50:01;;;;;;;;;;;;;;;19.30;54.71;100595.25;7388386;19;1847;-32
2024/01/14 06:52:29;;;;;;;;;;;;;;;19.27;54.60;100587.47;7390799;19;1536;-32
2024/01/14 06:54:57;;;;;;;;;;;;;;;19.24;54.75;100574.38;7393088;19;1577;-31
2024/01/14 06:57:26;;;;;;;;;;;;;;;19.17;55.35;100571.38;7393977;19;1552;-31
2024/01/14 06:59:54;;;;;;;;;;;;;;;19.14;55.25;100576.19;7379742;19;1453;-32
2024/01/14 07:02:25;;;;;;;;;;;;;;;19.18;55.27;100580.25;7393543;19;1549;-31
2024/01/14 07:04:55;;;;;;;;;;;;;;;19.19;55.21;100582.81;7394570;19;1405;-32
2024/01/14 07:07:24;;;;;;;;;;;;;;;19.16;55.32;100574.19;7391363;19;1772;-31
2024/01/14 07:09:52;;;;;;;;;;;;;;;19.18;55.41;100578.44;7391370;19;1857;-31
2024/01/14 07:12:20;;;;;;;;;;;;;;;19.27;55.03;100572.22;7391295;19;1723;-31
2024/01/14 07:14:48;;;;;;;;;;;;;;;19.39;55.03;100572.91;7390230;19;1770;-32
2024/01/14 07:17:17;;;;;;;;;;;;;;;19.36;55.13;100575.03;7391517;19;1533;-32
2024/01/14 07:19:48;;;;;;;;;;;;;;;19.33;55.37;100575.34;7393670;19;1588;-32
2024/01/14 07:22:16;;;;;;;;;;;;;;;19.24;55.31;100566.31;7393345;19;1096;-35
2024/01/14 07:24:44;;;;;;;;;;;;;;;19.12;55.54;100551.34;7388245;19;1536;-32
2024/01/14 07:27:13;;;;;;;;;;;;;;;19.07;55.79;100552.63;7390153;19;1417;-33
2024/01/14 07:29:41;;;;;;;;;;;;;;;19.02;56.18;100562.94;7391998;19;1843;-34
2024/01/14 07:32:09;;;;;;;;;;;;;;;18.89;57.01;100567.72;7393299;19;1587;-32
2024/01/14 07:34:38;;;;;;;;;;;;;;;18.96;56.63;100568.84;7392530;19;1259;-32
2024/01/14 07:37:09;;;;;;;;;;;;;;;18.93;56.49;100547.69;7391944;19;1604;-31
2024/01/14 07:39:38;;;;;;;;;;;;;;;18.91;56.40;100560.38;7393245;19;1129;-31
2024/01/14 07:42:07;;;;;;;;;;;;;;;18.94;55.61;100565.47;7388971;19;1443;-31
2024/01/14 07:44:35;;;;;;;;;;;;;;;18.78;55.42;100554.41;7390351;19;1176;-32
2024/01/14 07:47:03;;;;;;;;;;;;;;;18.88;55.03;100544.59;7392110;19;1450;-32
2024/01/14 07:49:32;;;;;;;;;;;;;;;18.88;54.82;100547.28;7385849;19;1842;-31
2024/01/14 07:52:00;;;;;;;;;;;;;;;18.79;54.55;100543.59;7390491;19;1473;-31
2024/01/14 07:54:31;;;;;;;;;;;;;;;18.83;54.11;100553.03;7392586;19;1355;-32
2024/01/14 07:56:59;;;;;;;;;;;;;;;18.83;54.56;100565.59;7392045;19;1415;-32
2024/01/14 07:59:28;;;;;;;;;;;;;;;18.87;54.78;100549.09;7377506;19;943;-31
2024/01/14 08:01:56;;;;;;;;;;;;;;;19.05;55.96;100535.84;7391734;19;1551;-31
2024/01/14 08:04:24;;;;;;;;;;;;;;;19.14;56.39;100544.00;7391586;19;1752;-31
2024/01/14 08:06:52;;;;;;;;;;;;;;;19.20;56.62;100533.59;7388895;19;1665;-31
2024/01/14 08:09:22;;;;;;;;;;;;;;;19.30;56.29;100546.13;7386684;19;1852;-31
2024/01/14 08:11:53;;;;;;;;;;;;;;;19.30;56.06;100538.94;7390311;19;1466;-32
2024/01/14 08:14:21;;;;;;;;;;;;;;;19.25;56.38;100538.50;7389370;19;1663;-31
2024/01/14 08:16:49;;;;;;;;;;;;;;;19.37;56.09;100529.31;7390706;19;1554;-31
2024/01/14 08:19:18;;;;;;;;;;;;;;;19.21;56.48;100527.22;7391379;19;1334;-32
2024/01/14 08:21:46;;;;;;;;;;;;;;;18.77;57.62;100516.06;7391084;19;1423;-31
2024/01/14 08:24:15;;;;;;;;;;;;;;;18.76;58.06;100527.78;7388017;19;1485;-32
2024/01/14 08:26:46;;;;;;;;;;;;;;;19.14;56.87;100528.81;7388665;19;1495;-31
2024/01/14 08:29:17;;;;;;;;;;;;;;;19.41;56.32;100525.34;7390055;19;1867;-32
2024/01/14 08:31:46;;;;;;;;;;;;;;;19.38;56.32;100519.47;7384486;19;1284;-32
2024/01/14 08:34:14;;;;;;;;;;;;;;;19.35;56.62;100533.97;7388479;19;1229;-32
2024/01/14 08:36:42;;;;;;;;;;;;;;;19.48;56.56;100509.56;7389135;19;1761;-32
2024/01/14 08:39:11;;;;;;;;;;;;;;;19.56;56.22;100500.78;7390612;19;1501;-32
2024/01/14 08:41:39;;;;;;;;;;;;;;;19.44;56.51;100509.00;7390857;19;1169;-31
2024/01/14 08:44:10;;;;;;;;;;;;;;;19.49;56.47;100497.81;7390530;19;1061;-31
2024/01/14 08:46:47;;;;;;;;;;;;;;;19.43;56.57;100504.59;7387005;19;1176;-31
2024/01/14 08:49:15;;;;;;;;;;;;;;;19.61;55.89;100509.22;7390468;19;1842;-31
2024/01/14 08:51:43;;;;;;;;;;;;;;;20.00;55.00;100493.84;7387217;19;1466;-34
2024/01/14 08:54:12;;;;;;;;;;;;;;;20.15;54.86;100494.19;7388311;19;1509;-34
2024/01/14 08:56:40;;;;;;;;;;;;;;;19.94;54.00;100498.97;7388380;19;1517;-34
2024/01/14 08:59:08;;;;;;;;;;;;;;;19.77;53.84;100497.91;7375527;19;1783;-34
2024/01/14 09:01:37;;;;;;;;;;;;;;;19.68;53.72;100499.63;7389231;19;1442;-34
2024/01/14 09:04:08;;;;;;;;;;;;;;;19.73;53.29;100491.97;7394583;19;1653;-34
2024/01/14 09:06:38;;;;;;;;;;;;;;;19.86;53.05;100497.88;7396604;19;1319;-34
2024/01/14 09:09:06;;;;;;;;;;;;;;;19.79;53.36;100479.81;7390082;19;1744;-34
2024/01/14 09:11:34;;;;;;;;;;;;;;;19.72;53.28;100463.47;7395489;19;1873;-34
2024/01/14 09:14:03;;;;;;;;;;;;;;;19.68;53.66;100468.25;7396053;19;1280;-34
2024/01/14 09:16:31;;;;;;;;;;;;;;;19.79;53.09;100467.25;7392950;19;1295;-36
2024/01/14 09:19:00;;;;;;;;;;;;;;;19.76;53.35;100459.50;7392285;19;1184;-36
2024/01/14 09:21:31;;;;;;;;;;;;;;;19.85;53.40;100452.41;7393015;19;1501;-36
2024/01/14 09:23:59;;;;;;;;;;;;;;;19.79;53.42;100453.84;7395401;19;1605;-33
2024/01/14 09:26:28;;;;;;;;;;;;;;;19.65;53.89;100457.81;7393624;19;1712;-36
2024/01/14 09:28:56;;;;;;;;;;;;;;;19.66;54.34;100456.00;7388616;19;2484;-33
2024/01/14 09:31:26;;;;;;;;;;;;;;;19.62;54.73;100462.66;7394023;19;1873;-32
2024/01/14 09:33:54;;;;;;;;;;;;;;;19.79;54.73;100448.47;7396374;19;1478;-32
2024/01/14 09:36:22;;;;;;;;;;;;;;;19.41;54.79;100363.63;7396314;19;1596;-33
2024/01/14 09:38:53;;;;;;;;;;;;;;;19.89;54.73;100451.09;7395127;19;1937;-32
2024/01/14 09:41:28;;;;;;;;;;;;;;;19.84;55.21;100451.56;7395005;19;1513;-32
2024/01/14 09:43:57;;;;;;;;;;;;;;;19.77;55.64;100438.88;7391044;19;1609;-32
2024/01/14 09:46:25;;;;;;;;;;;;;;;19.88;55.80;100440.53;7397356;19;1635;-32
2024/01/14 09:48:55;;;;;;;;;;;;;;;19.93;55.60;100422.13;7397678;19;1125;-33
2024/01/14 09:51:29;;;;;;;;;;;;;;;20.05;56.06;100426.28;7394836;19;1845;-33
2024/01/14 09:54:03;;;;;;;;;;;;;;;20.27;56.78;100420.50;7391678;19;1866;-32
2024/01/14 09:56:33;;;;;;;;;;;;;;;20.05;58.62;100432.53;7393405;19;1584;-33
2024/01/14 09:59:01;;;;;;;;;;;;;;;19.61;59.50;100436.81;7379748;19;1306;-33
2024/01/14 10:01:33;;;;;;;;;;;;;;;19.38;61.03;100423.78;7396790;19;1383;-32
2024/01/14 10:04:02;;;;;;;;;;;;;;;19.68;60.48;100433.38;7395744;19;1663;-32
2024/01/14 10:06:31;;;;;;;;;;;;;;;19.85;60.63;100426.41;7395144;19;1680;-32
2024/01/14 10:09:02;;;;;;;;;;;;;;;20.13;60.40;100431.75;7393898;19;1753;-32
2024/01/14 10:11:31;;;;;;;;;;;;;;;20.19;60.28;100416.88;7391183;19;1930;-33
2024/01/14 10:13:59;;;;;;;;;;;;;;;20.30;60.09;100402.41;7394597;19;1215;-33
2024/01/14 10:16:27;;;;;;;;;;;;;;;20.40;59.91;100403.19;7392223;19;1573;-32
2024/01/14 10:18:56;;;;;;;;;;;;;;;20.51;59.80;100410.97;7395218;19;1050;-32
2024/01/14 10:21:26;;;;;;;;;;;;;;;20.52;59.67;100399.25;7392194;19;1576;-33
2024/01/14 10:23:57;;;;;;;;;;;;;;;20.63;59.53;100415.16;7394339;19;1317;-32
2024/01/14 10:26:28;;;;;;;;;;;;;;;20.70;59.94;100401.13;7391952;19;1307;-33
2024/01/14 10:28:56;;;;;;;;;;;;;;;20.59;60.45;100386.94;7391683;19;1500;-33
2024/01/14 10:31:25;;;;;;;;;;;;;;;20.10;61.25;100383.75;7393804;19;1836;-33
2024/01/14 10:33:54;;;;;;;;;;;;;;;19.58;62.23;100372.75;7394511;19;1867;-33
2024/01/14 10:36:22;;;;;;;;;;;;;;;19.62;62.34;100372.28;7393989;19;1509;-33
2024/01/14 10:38:50;;;;;;;;;;;;;;;20.05;60.91;100367.25;7394130;19;1576;-32
2024/01/14 10:41:19;;;;;;;;;;;;;;;20.41;60.12;100367.25;7395444;19;1540;-33
2024/01/14 10:43:50;;;;;;;;;;;;;;;20.03;60.91;100358.50;7393741;19;1411;-33
2024/01/14 10:46:18;;;;;;;;;;;;;;;19.05;61.96;100294.63;7394368;19;1228;-33
2024/01/14 10:48:51;;;;;;;;;;;;;;;19.53;61.72;100353.56;7395028;19;1901;-33
2024/01/14 10:51:20;;;;;;;;;;;;;;;19.89;60.47;100350.97;7393631;19;1841;-32
2024/01/14 10:53:55;;;;;;;;;;;;;;;20.10;60.20;100330.06;7392232;19;1873;-33
2024/01/14 10:56:26;;;;;;;;;;;;;;;19.76;61.02;100322.69;7391211;19;1393;-34
2024/01/14 10:58:59;;;;;;;;;;;;;;;19.45;61.88;100349.78;7390309;19;1820;-33
2024/01/14 11:01:27;;;;;;;;;;;;;;;19.56;62.61;100332.66;7374127;19;1837;-33
2024/01/14 11:03:56;;;;;;;;;;;;;;;18.44;61.51;100340.56;7390405;19;1508;-33
2024/01/14 11:06:24;;;;;;;;;;;;;;;18.57;60.84;100365.22;7389141;19;1385;-33
2024/01/14 11:08:54;;;;;;;;;;;;;;;19.07;60.24;100332.03;7391890;19;1617;-32
2024/01/14 11:11:24;;;;;;;;;;;;;;;19.44;59.30;100315.09;7394083;19;1864;-32
2024/01/14 11:13:55;;;;;;;;;;;;;;;19.60;59.17;100303.69;7392967;19;1259;-33
2024/01/14 11:16:31;;;;;;;;;;;;;;;19.36;59.34;100323.00;7392557;19;1401;-34
2024/01/14 11:19:01;;;;;;;;;;;;;;;18.98;60.66;100315.00;7394717;19;1498;-33
2024/01/14 11:21:34;;;;;;;;;;;;;;;18.90;59.63;100308.66;7393506;19;1351;-34
2024/01/14 11:24:03;;;;;;;;;;;;;;;19.23;58.88;100329.56;7393973;19;1505;-34
2024/01/14 11:26:31;;;;;;;;;;;;;;;19.46;58.08;100308.56;7393854;19;1287;-34
2024/01/14 11:29:01;;;;;;;;;;;;;;;19.29;58.49;100290.59;7393198;19;1223;-34
2024/01/14 11:31:44;;;;;;;;;;;;;;;18.97;59.14;100309.78;7394170;19;1838;-35
2024/01/14 11:34:35;;;;;;;;;;;;;;;18.63;60.02;100305.75;7393316;19;1624;-34
2024/01/14 11:37:04;;;;;;;;;;;;;;;18.97;58.92;100313.28;7392260;19;2132;-34
2024/01/14 11:39:32;;;;;;;;;;;;;;;19.21;58.25;100298.53;7394563;19;1035;-34
2024/01/14 11:42:01;;;;;;;;;;;;;;;19.22;58.56;100305.59;7393022;19;1254;-33
2024/01/14 11:44:32;;;;;;;;;;;;;;;18.81;59.81;100297.00;7384094;19;1378;-33
2024/01/14 11:47:00;;;;;;;;;;;;;;;17.93;60.40;100248.91;7376888;19;1705;-34
2024/01/14 11:49:33;;;;;;;;;;;;;;;18.59;60.40;100288.28;7388543;19;1230;-34
2024/01/14 11:52:02;;;;;;;;;;;;;;;19.11;58.97;100297.75;7389162;19;1850;-34
2024/01/14 11:54:33;;;;;;;;;;;;;;;19.24;58.45;100308.97;7390389;19;1432;-34
2024/01/14 11:57:02;;;;;;;;;;;;;;;19.16;58.58;100295.44;7391215;19;1579;-34
2024/01/14 11:59:30;;;;;;;;;;;;;;;18.77;59.60;100300.94;7271396;19;1321;-34
2024/01/14 12:01:59;;;;;;;;;;;;;;;18.37;59.68;100273.38;7285299;19;2011;-34
2024/01/14 12:04:27;;;;;;;;;;;;;;;18.53;58.92;100286.19;7391442;19;1810;-34
2024/01/14 12:06:59;;;;;;;;;;;;;;;18.90;58.00;100273.84;7377760;19;2339;-34
2024/01/14 12:09:27;;;;;;;;;;;;;;;19.26;57.30;100280.19;7388216;19;1831;-34
2024/01/14 12:11:59;;;;;;;;;;;;;;;19.13;57.89;100264.44;7389446;19;1842;-34
2024/01/14 12:14:28;;;;;;;;;;;;;;;18.81;58.65;100257.66;7391600;19;1840;-34
2024/01/14 12:16:56;;;;;;;;;;;;;;;18.62;58.92;100253.19;7391324;19;1397;-34
2024/01/14 12:19:24;;;;;;;;;;;;;;;19.26;57.57;100256.06;7391587;19;1023;-34
2024/01/14 12:21:54;;;;;;;;;;;;;;;19.49;56.55;100243.06;7387885;19;1919;-34
2024/01/14 12:24:24;;;;;;;;;;;;;;;19.56;56.18;100254.03;7391510;19;1578;-34
2024/01/14 12:26:57;;;;;;;;;;;;;;;19.04;57.36;100238.53;7387999;19;1757;-34
2024/01/14 12:29:26;;;;;;;;;;;;;;;18.66;58.29;100251.91;7389625;19;1798;-37
2024/01/14 12:31:54;;;;;;;;;;;;;;;18.71;57.99;100256.81;7386700;19;1847;-33
2024/01/14 12:34:22;;;;;;;;;;;;;;;19.09;57.09;100246.97;7388817;19;1112;-32
2024/01/14 12:36:50;;;;;;;;;;;;;;;19.35;56.63;100252.44;7384299;19;2216;-33
2024/01/14 12:39:19;;;;;;;;;;;;;;;19.33;56.66;100258.97;7387786;19;1510;-33
2024/01/14 12:41:50;;;;;;;;;;;;;;;18.86;57.87;100257.19;7388887;19;1502;-34
2024/01/14 12:44:19;;;;;;;;;;;;;;;18.60;58.54;100248.94;7387870;19;1736;-32
2024/01/14 12:46:50;;;;;;;;;;;;;;;18.86;57.86;100241.13;7392552;19;1090;-33
2024/01/14 12:49:19;;;;;;;;;;;;;;;19.14;57.12;100233.09;7393303;19;1032;-34
2024/01/14 12:51:48;;;;;;;;;;;;;;;19.38;56.72;100230.72;7390465;19;1853;-33
2024/01/14 12:54:20;;;;;;;;;;;;;;;19.07;57.35;100252.47;7391478;19;1521;-34
2024/01/14 12:57:02;;;;;;;;;;;;;;;18.71;58.29;100275.56;7391187;19;1815;-33